EW7114 Weather Reports


Display with metric or nautical units.
time (UTC)temp
F
wind
direction
speed
MPH
gust
MPH
rain 1hr
in
rain 24hr
in
rain mn
in
humidity
%
barometer
mb
20200702221526 86 145 11.0 19.0 0.00 0.00 0.00 16 1002.9
20200702220030 86 161 9.0 15.0 0.00 0.00 0.00 16 1003.1
20200702214546 86 154 12.0 19.0 0.00 0.00 0.00 16 1003.2
20200702213020 86 158 14.0 20.0 0.00 0.00 0.00 17 1003.3
20200702211558 85 184 12.0 22.0 0.00 0.00 0.00 16 1003.4
20200702210023 85 93 8.0 17.0 0.00 0.00 0.00 16 1003.2
20200702204539 85 136 12.0 25.0 0.00 0.00 0.00 18 1003.2
20200702203032 85 126 12.0 21.0 0.00 0.00 0.00 16 1003.3
20200702201543 84 151 11.0 24.0 0.00 0.00 0.00 18 1003.4
20200702200008 84 143 6.0 33.0 0.00 0.00 0.00 18 1003.4
20200702194516 85 161 14.0 25.0 0.00 0.00 0.00 17 1003.6
20200702193006 83 249 5.0 29.0 0.00 0.00 0.00 21 1003.6
20200702191651 82 153 4.0 16.0 0.00 0.00 0.00 18 1003.7
20200702190246 82 142 7.0 13.0 0.00 0.00 0.00 20 1004.1
20200702184648 81 190 7.0 14.0 0.00 0.00 0.00 22 1004.2
20200702183140 81 169 7.0 14.0 0.00 0.00 0.00 21 1004.3
20200702181633 81 192 7.0 13.0 0.00 0.00 0.00 22 1004.5
20200702180146 81 150 11.0 20.0 0.00 0.00 0.00 19 1004.5
20200702174657 81 155 10.0 23.0 0.00 0.00 0.00 21 1004.3
20200702173133 81 222 6.0 23.0 0.00 0.00 0.00 22 1004.2
20200702171624 80 121 13.0 19.0 0.00 0.00 0.00 22 1004.2
20200702170100 78 151 6.0 10.0 0.00 0.00 0.00 23 1004.4
20200702164553 78 217 3.0 5.0 0.00 0.00 0.00 25 1004.5
20200702163049 77 165 3.0 8.0 0.00 0.00 0.00 26 1004.6
20200702161551 76 162 4.0 11.0 0.00 0.00 0.00 28 1004.6
20200702160100 75 176 3.0 6.0 0.00 0.00 0.00 29 1004.6
20200702154658 74 141 8.0 12.0 0.00 0.00 0.00 27 1004.7
20200702153043 73 170 4.0 8.0 0.00 0.00 0.00 32 1004.7
20200702151529 71 147 4.0 7.0 0.00 0.00 0.00 33 1004.7
20200702150022 69 169 3.0 5.0 0.00 0.00 0.00 38 1004.6
20200702144555 67 174 1.0 5.0 0.00 0.00 0.00 41 1004.7
20200702143040 66 175 3.0 5.0 0.00 0.00 0.00 42 1004.7
20200702141516 63 224 1.0 4.0 0.00 0.00 0.00 52 1004.7
20200702140039 60 224 2.0 3.0 0.00 0.00 0.00 60 1004.7
20200702134515 59 224 0.0 4.0 0.00 0.00 0.00 63 1004.6
20200702133040 59 276 1.0 3.0 0.00 0.00 0.00 63 1004.5
20200702131523 58 66 0.0 4.0 0.00 0.00 0.00 61 1004.5
20200702130044 57 320 3.0 6.0 0.00 0.00 0.00 64 1004.3
20200702124509 55 345 4.0 6.0 0.00 0.00 0.00 67 1004.2
20200702123010 56 345 4.0 6.0 0.00 0.00 0.00 65 1004.1
20200702121653 57 317 1.0 4.0 0.00 0.00 0.00 63 1004.1
20200702120349 57 345 2.0 6.0 0.00 0.00 0.00 61 1004.1
20200702114616 57 345 3.0 8.0 0.00 0.00 0.00 64 1004.0
20200702113159 57 317 2.0 8.0 0.00 0.00 0.00 64 1003.9
20200702111604 58 303 2.0 4.0 0.00 0.00 0.00 61 1003.8
20200702110117 59 2 0.0 5.0 0.00 0.00 0.00 42 1003.6
20200702104621 61 154 0.0 5.0 0.00 0.00 0.00 33 1003.3
20200702103104 62 155 1.0 5.0 0.00 0.00 0.00 31 1003.1
20200702101823 63 150 5.0 9.0 0.00 0.00 0.00 29 1003.0
20200702100103 62 134 3.0 7.0 0.00 0.00 0.00 29 1002.8
20200702094556 62 107 2.0 6.0 0.00 0.00 0.00 28 1002.7
20200702093041 63 86 4.0 8.0 0.00 0.00 0.00 28 1002.7
20200702091605 63 90 7.0 11.0 0.00 0.00 0.00 28 1002.7
20200702090051 65 115 6.0 10.0 0.00 0.00 0.00 26 1002.8
20200702084551 66 94 6.0 12.0 0.00 0.00 0.00 25 1002.8
20200702083043 67 95 3.0 10.0 0.00 0.00 0.00 24 1002.7
20200702081519 67 88 8.0 10.0 0.00 0.00 0.00 24 1002.5
20200702080017 68 72 6.0 11.0 0.00 0.00 0.00 23 1002.5
20200702074526 68 88 6.0 9.0 0.00 0.00 0.00 23 1002.4
20200702073044 68 107 6.0 10.0 0.00 0.00 0.00 23 1002.3
20200702071514 67 88 7.0 11.0 0.00 0.00 0.00 23 1002.1
20200702070022 68 88 8.0 12.0 0.00 0.00 0.00 24 1002.1
20200702064517 66 70 6.0 10.0 0.00 0.00 0.00 25 1002.0
20200702063009 65 65 2.0 5.0 0.00 0.00 0.00 26 1002.0
20200702061514 64 57 3.0 6.0 0.00 0.00 0.00 29 1002.0
20200702060017 63 26 3.0 6.0 0.00 0.00 0.00 29 1002.1
20200702054508 66 149 0.0 5.0 0.00 0.00 0.00 25 1002.0
20200702053010 66 182 0.0 7.0 0.00 0.00 0.00 26 1002.0
20200702051506 66 115 7.0 11.0 0.00 0.00 0.00 24 1001.9
20200702050012 66 124 5.0 11.0 0.00 0.00 0.00 24 1002.1
20200702044509 68 105 6.0 10.0 0.00 0.00 0.00 22 1002.0
20200702043004 69 122 8.0 13.0 0.00 0.00 0.00 22 1001.7
20200702041810 68 126 8.0 12.0 0.00 0.00 0.00 22 1001.7
20200702040111 68 116 9.0 11.0 0.00 0.00 0.00 23 1001.5
20200702034639 68 134 6.0 10.0 0.00 0.00 0.00 24 1001.2
20200702033152 69 134 8.0 11.0 0.00 0.00 0.00 23 1000.9
20200702031627 72 140 5.0 12.0 0.00 0.00 0.00 22 1000.9
20200702030142 75 130 8.0 11.0 0.00 0.00 0.00 19 1000.9
20200702024706 77 170 7.0 11.0 0.00 0.00 0.00 19 1000.9
20200702023233 79 153 10.0 16.0 0.00 0.00 0.00 17 1000.8
20200702021625 81 164 10.0 16.0 0.00 0.00 0.00 15 1000.8
20200702020206 81 155 10.0 16.0 0.00 0.00 0.00 14 1000.8
20200702014643 83 160 9.0 15.0 0.00 0.00 0.00 14 1000.8
20200702013153 82 154 10.0 15.0 0.00 0.00 0.00 14 1000.9
20200702011625 83 190 6.0 16.0 0.00 0.00 0.00 14 1001.1
20200702010057 83 148 8.0 19.0 0.00 0.00 0.00 15 1001.2
20200702004616 82 163 6.0 14.0 0.00 0.00 0.00 17 1001.3
20200702003120 83 154 14.0 19.0 0.00 0.00 0.00 13 1001.3
20200702001559 83 177 9.0 17.0 0.00 0.00 0.00 13 1001.6
20200702000110 83 151 16.0 23.0 0.00 0.00 0.00 14 1001.8
20200701234610 83 119 9.0 22.0 0.00 0.00 0.00 13 1002.0
20200701233051 83 166 10.0 22.0 0.00 0.00 0.00 12 1002.3
20200701231542 84 161 8.0 24.0 0.00 0.00 0.00 15 1002.4
20200701230056 83 189 5.0 14.0 0.00 0.00 0.00 15 1002.7
20200701224603 82 159 14.0 21.0 0.00 0.00 0.00 14 1003.1